createdAt,value
2017-12-16T00:00:11.773Z,79.56
2017-12-16T00:01:11.766Z,79.66
2017-12-16T00:02:11.758Z,78.90
2017-12-16T00:03:11.752Z,78.90
2017-12-16T00:04:11.745Z,78.23
2017-12-16T00:05:11.738Z,78.42
2017-12-16T00:06:11.729Z,78.90
2017-12-16T00:07:11.723Z,78.80
2017-12-16T00:08:11.717Z,79.28
2017-12-16T00:09:11.710Z,78.80
2017-12-16T00:10:11.705Z,78.99
2017-12-16T00:11:11.694Z,78.52
2017-12-16T00:12:11.689Z,78.90
2017-12-16T00:13:11.683Z,79.47
2017-12-16T00:14:11.674Z,79.47
2017-12-16T00:15:11.666Z,79.56
2017-12-16T00:16:11.661Z,79.28
2017-12-16T00:17:11.653Z,80.32
2017-12-16T00:18:11.645Z,80.32
2017-12-16T00:19:11.639Z,79.47
2017-12-16T00:20:11.632Z,79.56
2017-12-16T00:21:11.624Z,80.51
2017-12-16T00:22:11.617Z,79.56
2017-12-16T00:23:11.611Z,78.61
2017-12-16T00:24:11.602Z,79.28
2017-12-16T00:25:11.595Z,78.42
2017-12-16T00:26:11.588Z,78.52
2017-12-16T00:27:11.583Z,77.67
2017-12-16T00:28:11.573Z,77.58
2017-12-16T00:29:11.573Z,77.95
2017-12-16T00:30:11.560Z,77.58
2017-12-16T00:31:11.554Z,77.58
2017-12-16T00:32:11.546Z,78.42
2017-12-16T00:33:11.539Z,78.52
2017-12-16T00:34:11.532Z,78.52
2017-12-16T00:35:11.525Z,78.52
2017-12-16T00:36:11.519Z,78.90
2017-12-16T00:37:11.510Z,78.99
2017-12-16T00:38:11.506Z,78.05
2017-12-16T00:39:11.497Z,77.76
2017-12-16T00:40:11.490Z,78.23
2017-12-16T00:41:11.483Z,77.86
2017-12-16T00:42:11.477Z,77.86
2017-12-16T00:43:11.472Z,78.14
2017-12-16T00:44:11.464Z,77.95
2017-12-16T00:45:11.455Z,78.23
2017-12-16T00:46:11.449Z,77.86
2017-12-16T00:47:11.442Z,77.67
2017-12-16T00:48:11.435Z,77.48
2017-12-16T00:49:11.426Z,77.10
2017-12-16T00:50:11.420Z,76.72
2017-12-16T00:51:11.414Z,77.20
2017-12-16T00:52:11.406Z,77.48
2017-12-16T00:53:11.400Z,77.20
2017-12-16T00:54:11.392Z,77.29
2017-12-16T00:55:11.387Z,77.20
2017-12-16T00:56:11.379Z,76.63
2017-12-16T00:57:11.372Z,76.53
2017-12-16T00:58:11.368Z,77.20
2017-12-16T00:59:11.358Z,77.39
2017-12-16T01:00:11.352Z,77.48
2017-12-16T01:01:11.347Z,78.05
2017-12-16T01:02:11.337Z,78.42
2017-12-16T01:03:11.331Z,78.52
2017-12-16T01:04:11.323Z,78.52
2017-12-16T01:05:11.316Z,77.48
2017-12-16T01:06:11.308Z,78.42
2017-12-16T01:07:11.304Z,79.37
2017-12-16T01:08:11.295Z,78.42
2017-12-16T01:09:11.287Z,78.05
2017-12-16T01:10:11.280Z,77.48
2017-12-16T01:11:11.273Z,77.20
2017-12-16T01:12:11.267Z,76.82
2017-12-16T01:13:11.259Z,76.72
2017-12-16T01:14:11.252Z,76.82
2017-12-16T01:15:11.246Z,77.48
2017-12-16T01:16:11.239Z,77.29
2017-12-16T01:17:11.230Z,77.01
2017-12-16T01:18:11.228Z,77.58
2017-12-16T01:19:11.220Z,77.20
2017-12-16T01:20:11.211Z,77.39
2017-12-16T01:21:11.203Z,77.39
2017-12-16T01:22:11.196Z,77.58
2017-12-16T01:23:11.189Z,78.05
2017-12-16T01:24:11.183Z,77.20
2017-12-16T01:25:11.176Z,77.29
2017-12-16T01:26:11.170Z,76.91
2017-12-16T01:27:11.165Z,76.63
2017-12-16T01:28:11.158Z,76.53
2017-12-16T01:29:11.147Z,76.44
2017-12-16T01:30:11.140Z,76.53
2017-12-16T01:31:11.134Z,76.82
2017-12-16T01:32:11.127Z,77.29
2017-12-16T01:33:11.119Z,77.10
2017-12-16T01:34:11.112Z,77.39
2017-12-16T01:35:11.106Z,77.76
2017-12-16T01:36:11.100Z,77.95
2017-12-16T01:37:11.093Z,77.95
2017-12-16T01:38:11.088Z,78.42
2017-12-16T01:39:11.078Z,78.52
2017-12-16T01:40:11.072Z,78.99
2017-12-16T01:41:11.064Z,79.09
2017-12-16T01:42:11.059Z,78.90
2017-12-16T01:43:11.054Z,78.33
2017-12-16T01:44:11.045Z,78.52
2017-12-16T01:45:11.036Z,78.61
2017-12-16T01:46:11.030Z,78.42
2017-12-16T01:47:11.023Z,78.33
2017-12-16T01:48:11.017Z,78.33
2017-12-16T01:49:11.010Z,78.52
2017-12-16T01:50:11.002Z,78.71
2017-12-16T01:51:10.996Z,79.09
2017-12-16T01:52:10.988Z,79.66
2017-12-16T01:53:10.981Z,80.41
2017-12-16T01:54:10.974Z,80.60
2017-12-16T01:55:10.966Z,80.60
2017-12-16T01:56:10.960Z,80.13
2017-12-16T01:57:10.952Z,79.37
2017-12-16T01:58:10.945Z,79.56
2017-12-16T01:59:10.941Z,79.56
2017-12-16T02:00:10.934Z,79.75
2017-12-16T02:01:10.925Z,79.56
2017-12-16T02:02:10.917Z,78.90
2017-12-16T02:03:10.912Z,78.80
2017-12-16T02:04:10.905Z,78.99
2017-12-16T02:05:10.951Z,78.52
2017-12-16T02:06:10.890Z,78.33
2017-12-16T02:07:10.884Z,78.61
2017-12-16T02:08:10.876Z,78.52
2017-12-16T02:09:10.867Z,78.42
2017-12-16T02:10:10.860Z,79.18
2017-12-16T02:11:10.854Z,78.90
2017-12-16T02:12:10.854Z,79.75
2017-12-16T02:13:10.839Z,80.32
2017-12-16T02:14:10.833Z,80.22
2017-12-16T02:15:10.824Z,79.66
2017-12-16T02:16:10.818Z,80.32
2017-12-16T02:17:10.811Z,80.13
2017-12-16T02:18:10.804Z,79.47
2017-12-16T02:19:10.797Z,79.47
2017-12-16T02:20:10.791Z,79.28
2017-12-16T02:21:10.783Z,80.04
2017-12-16T02:22:10.777Z,80.13
2017-12-16T02:23:10.770Z,80.32
2017-12-16T02:24:10.762Z,80.13
2017-12-16T02:25:10.755Z,80.41
2017-12-16T02:26:10.748Z,79.56
2017-12-16T02:27:10.741Z,80.41
2017-12-16T02:28:10.734Z,80.69
2017-12-16T02:29:10.726Z,80.79
2017-12-16T02:30:10.720Z,80.98
2017-12-16T02:31:10.711Z,80.51
2017-12-16T02:32:10.705Z,79.75
2017-12-16T02:33:10.697Z,80.04
2017-12-16T02:34:10.690Z,79.47
2017-12-16T02:35:10.682Z,79.09
2017-12-16T02:36:10.675Z,78.99
2017-12-16T02:37:10.668Z,78.90
2017-12-16T02:38:10.663Z,79.37
2017-12-16T02:39:10.654Z,79.37
2017-12-16T02:40:10.648Z,79.47
2017-12-16T02:41:10.641Z,79.28
2017-12-16T02:42:10.634Z,79.85
2017-12-16T02:43:10.627Z,80.32
2017-12-16T02:44:10.621Z,80.13
2017-12-16T02:45:10.611Z,80.51
2017-12-16T02:46:10.605Z,80.41
2017-12-16T02:47:10.599Z,79.94
2017-12-16T02:48:10.592Z,79.94
2017-12-16T02:49:10.584Z,80.51
2017-12-16T02:50:10.576Z,80.32
2017-12-16T02:51:10.570Z,80.69
2017-12-16T02:52:10.568Z,80.60
2017-12-16T02:53:10.554Z,80.32
2017-12-16T02:54:10.547Z,80.32
2017-12-16T02:55:10.540Z,80.32
2017-12-16T02:56:10.561Z,79.94
2017-12-16T02:57:10.529Z,80.13
2017-12-16T02:58:10.519Z,80.32
2017-12-16T02:59:10.512Z,79.75
2017-12-16T03:00:10.506Z,79.47
2017-12-16T03:01:10.498Z,80.32
2017-12-16T03:02:10.490Z,80.32
2017-12-16T03:03:10.484Z,80.79
2017-12-16T03:04:10.485Z,81.17
2017-12-16T03:05:10.469Z,81.26
2017-12-16T03:06:10.462Z,82.02
2017-12-16T03:07:10.456Z,82.54
2017-12-16T03:08:10.448Z,82.92
2017-12-16T03:09:10.441Z,82.73
2017-12-16T03:10:10.435Z,83.02
2017-12-16T03:11:10.428Z,82.83
2017-12-16T03:12:10.420Z,82.68
2017-12-16T03:13:10.412Z,82.31
2017-12-16T03:14:10.406Z,82.07
2017-12-16T03:15:10.398Z,81.88
2017-12-16T03:16:10.392Z,82.17
2017-12-16T03:17:10.384Z,81.79
2017-12-16T03:18:10.376Z,81.55
2017-12-16T03:19:10.370Z,81.07
2017-12-16T03:20:10.361Z,81.26
2017-12-16T03:21:10.354Z,80.69
2017-12-16T03:22:10.347Z,80.41
2017-12-16T03:23:10.340Z,80.41
2017-12-16T03:24:10.333Z,79.56
2017-12-16T03:25:10.324Z,79.47
2017-12-16T03:26:10.317Z,79.18
2017-12-16T03:27:10.310Z,78.80
2017-12-16T03:28:10.305Z,78.80
2017-12-16T03:29:10.297Z,78.99
2017-12-16T03:30:10.290Z,78.52
2017-12-16T03:31:10.283Z,78.80
2017-12-16T03:32:10.274Z,78.33
2017-12-16T03:33:10.268Z,78.99
2017-12-16T03:34:10.263Z,79.56
2017-12-16T03:35:10.254Z,79.56
2017-12-16T03:36:10.247Z,79.56
2017-12-16T03:37:10.238Z,79.28
2017-12-16T03:38:10.232Z,79.56
2017-12-16T03:39:10.224Z,79.09
2017-12-16T03:40:10.219Z,79.09
2017-12-16T03:41:10.211Z,79.09
2017-12-16T03:42:10.203Z,78.80
2017-12-16T03:43:10.196Z,78.90
2017-12-16T03:44:10.190Z,79.09
2017-12-16T03:45:10.182Z,78.71
2017-12-16T03:46:10.175Z,79.47
2017-12-16T03:47:10.169Z,79.37
2017-12-16T03:48:10.161Z,79.28
2017-12-16T03:49:10.153Z,80.13
2017-12-16T03:50:10.174Z,80.22
2017-12-16T03:51:10.143Z,80.41
2017-12-16T03:52:10.132Z,80.79
2017-12-16T03:53:10.126Z,80.32
2017-12-16T03:54:10.117Z,80.13
2017-12-16T03:55:10.112Z,80.22
2017-12-16T03:56:10.103Z,80.13
2017-12-16T03:57:10.096Z,80.41
2017-12-16T03:58:10.092Z,80.41
2017-12-16T03:59:10.084Z,80.22
2017-12-16T04:00:10.080Z,80.69
2017-12-16T04:01:10.067Z,81.36
2017-12-16T04:02:10.061Z,81.26
2017-12-16T04:03:10.055Z,81.93
2017-12-16T04:04:10.046Z,81.55
2017-12-16T04:05:10.038Z,81.45
2017-12-16T04:06:10.031Z,81.26
2017-12-16T04:07:10.025Z,80.41
2017-12-16T04:08:10.019Z,80.60
2017-12-16T04:09:10.010Z,80.51
2017-12-16T04:10:10.003Z,81.26
2017-12-16T04:11:09.997Z,81.36
2017-12-16T04:12:09.990Z,81.55
2017-12-16T04:13:09.980Z,80.32
2017-12-16T04:14:09.974Z,80.51
2017-12-16T04:15:09.968Z,80.13
2017-12-16T04:16:09.961Z,80.13
2017-12-16T04:17:09.953Z,80.60
2017-12-16T04:18:09.944Z,80.88
2017-12-16T04:19:09.937Z,80.88
2017-12-16T04:20:09.930Z,80.60
2017-12-16T04:21:09.923Z,80.79
2017-12-16T04:22:09.915Z,80.51
2017-12-16T04:23:09.909Z,79.85
2017-12-16T04:24:09.903Z,79.28
2017-12-16T04:25:09.895Z,80.60
2017-12-16T04:26:09.888Z,79.94
2017-12-16T04:27:09.881Z,80.13
2017-12-16T04:28:09.874Z,80.13
2017-12-16T04:29:09.865Z,80.22
2017-12-16T04:30:09.859Z,80.41
2017-12-16T04:31:09.853Z,80.13
2017-12-16T04:32:09.845Z,79.75
2017-12-16T04:33:09.838Z,79.37
2017-12-16T04:34:09.830Z,79.66
2017-12-16T04:35:09.822Z,79.18
2017-12-16T04:36:09.817Z,79.28
2017-12-16T04:37:09.809Z,78.42
2017-12-16T04:38:09.801Z,78.52
2017-12-16T04:39:09.795Z,78.52
2017-12-16T04:40:09.788Z,78.42
2017-12-16T04:41:09.781Z,78.52
2017-12-16T04:42:09.775Z,78.99
2017-12-16T04:43:09.768Z,78.90
2017-12-16T04:44:09.761Z,79.18
2017-12-16T04:45:09.753Z,78.71
2017-12-16T04:46:09.746Z,78.52
2017-12-16T04:47:09.738Z,78.52
2017-12-16T04:48:09.732Z,78.61
2017-12-16T04:49:09.724Z,78.42
2017-12-16T04:50:09.717Z,78.42
2017-12-16T04:51:09.710Z,78.52
2017-12-16T04:52:09.705Z,78.99
2017-12-16T04:53:09.696Z,78.99
2017-12-16T04:54:09.689Z,79.09
2017-12-16T04:55:09.683Z,79.37
2017-12-16T04:56:09.674Z,78.90
2017-12-16T04:57:09.669Z,78.80
2017-12-16T04:58:09.660Z,78.52
2017-12-16T04:59:09.654Z,78.90
2017-12-16T05:00:09.647Z,79.18
2017-12-16T05:01:09.641Z,79.37
2017-12-16T05:02:09.634Z,79.56
2017-12-16T05:03:09.627Z,80.41
2017-12-16T05:04:09.619Z,80.13
2017-12-16T05:05:09.618Z,80.88
2017-12-16T05:06:09.605Z,80.88
2017-12-16T05:07:09.600Z,80.60
2017-12-16T05:08:09.593Z,80.69
2017-12-16T05:09:09.585Z,81.26
2017-12-16T05:10:09.576Z,80.69
2017-12-16T05:11:09.570Z,80.69
2017-12-16T05:12:09.563Z,80.98
2017-12-16T05:13:09.557Z,80.13
2017-12-16T05:14:09.548Z,79.47
2017-12-16T05:15:09.543Z,79.75
2017-12-16T05:16:09.535Z,79.47
2017-12-16T05:17:09.528Z,79.66
2017-12-16T05:18:09.521Z,79.85
2017-12-16T05:19:09.515Z,79.75
2017-12-16T05:20:09.508Z,79.18
2017-12-16T05:21:09.498Z,79.47
2017-12-16T05:22:09.493Z,79.75
2017-12-16T05:23:09.487Z,79.18
2017-12-16T05:24:09.480Z,78.71
2017-12-16T05:25:09.472Z,79.56
2017-12-16T05:26:09.464Z,80.60
2017-12-16T05:27:09.458Z,80.41
2017-12-16T05:28:09.450Z,80.88
2017-12-16T05:29:09.444Z,81.07
2017-12-16T05:30:09.436Z,81.45
2017-12-16T05:31:09.430Z,81.36
2017-12-16T05:32:09.423Z,81.64
2017-12-16T05:33:09.415Z,81.74
2017-12-16T05:34:09.408Z,81.55
2017-12-16T05:35:09.400Z,81.36
2017-12-16T05:36:09.394Z,81.26
2017-12-16T05:37:09.387Z,81.07
2017-12-16T05:38:09.379Z,81.17
2017-12-16T05:39:09.372Z,81.55
2017-12-16T05:40:09.364Z,82.12
2017-12-16T05:41:09.357Z,82.21
2017-12-16T05:42:09.351Z,81.93
2017-12-16T05:43:09.343Z,81.93
2017-12-16T05:44:09.337Z,81.74
2017-12-16T05:45:09.328Z,81.93
2017-12-16T05:46:09.320Z,81.93
2017-12-16T05:47:09.317Z,81.74
2017-12-16T05:48:09.306Z,80.98
2017-12-16T05:49:09.299Z,81.26
2017-12-16T05:50:09.293Z,81.26
2017-12-16T05:51:09.285Z,80.60
2017-12-16T05:52:09.277Z,80.79
2017-12-16T05:53:09.270Z,81.36
2017-12-16T05:54:09.263Z,81.26
2017-12-16T05:55:09.254Z,81.64
2017-12-16T05:56:09.249Z,81.07
2017-12-16T05:57:09.241Z,81.64
2017-12-16T05:58:09.234Z,81.64
2017-12-16T05:59:09.227Z,81.79
2017-12-16T06:00:09.221Z,82.26
2017-12-16T06:01:09.211Z,82.02
2017-12-16T06:02:09.205Z,81.93
2017-12-16T06:03:09.197Z,81.45
2017-12-16T06:04:09.192Z,81.17
2017-12-16T06:05:09.183Z,81.07
2017-12-16T06:06:09.177Z,81.07
2017-12-16T06:07:09.169Z,80.22
2017-12-16T06:08:09.162Z,79.66
2017-12-16T06:09:09.154Z,80.41
2017-12-16T06:10:09.147Z,79.56
2017-12-16T06:11:09.141Z,79.37
2017-12-16T06:12:09.135Z,78.80
2017-12-16T06:13:09.126Z,79.37
2017-12-16T06:14:09.120Z,79.37
2017-12-16T06:15:09.113Z,79.37
2017-12-16T06:16:09.105Z,80.51
2017-12-16T06:17:09.097Z,79.47
2017-12-16T06:18:09.090Z,79.66
2017-12-16T06:19:09.084Z,80.13
2017-12-16T06:20:09.077Z,80.79
2017-12-16T06:21:09.070Z,80.79
2017-12-16T06:22:09.062Z,80.88
2017-12-16T06:23:09.092Z,80.41
2017-12-16T06:24:09.048Z,80.88
2017-12-16T06:25:09.039Z,80.69
2017-12-16T06:26:09.033Z,81.26
2017-12-16T06:27:09.047Z,81.26
2017-12-16T06:28:09.019Z,81.26
2017-12-16T06:29:09.011Z,81.36
2017-12-16T06:30:09.005Z,81.36
2017-12-16T06:31:08.997Z,81.17
2017-12-16T06:32:08.991Z,81.64
2017-12-16T06:33:08.984Z,82.02
2017-12-16T06:34:08.979Z,81.64
2017-12-16T06:35:08.970Z,81.93
2017-12-16T06:36:09.015Z,82.50
2017-12-16T06:37:08.954Z,82.12
2017-12-16T06:38:08.946Z,81.74
2017-12-16T06:39:08.941Z,81.93
2017-12-16T06:40:08.933Z,81.74
2017-12-16T06:41:08.926Z,82.40
2017-12-16T06:42:08.918Z,82.68
2017-12-16T06:43:08.911Z,83.15
2017-12-16T06:44:08.904Z,82.02
2017-12-16T06:45:08.895Z,81.74
2017-12-16T06:46:08.893Z,82.12
2017-12-16T06:47:08.882Z,82.50
2017-12-16T06:48:08.875Z,82.78
2017-12-16T06:49:08.867Z,82.87
2017-12-16T06:50:08.882Z,82.97
2017-12-16T06:51:08.855Z,82.50
2017-12-16T06:52:08.847Z,82.87
2017-12-16T06:53:08.838Z,82.87
2017-12-16T06:54:08.832Z,82.59
2017-12-16T06:55:08.824Z,82.21
2017-12-16T06:56:08.856Z,81.74
2017-12-16T06:57:08.877Z,81.74
2017-12-16T06:58:08.801Z,81.83
2017-12-16T06:59:08.795Z,80.98
2017-12-16T07:00:08.795Z,81.36
2017-12-16T07:01:08.780Z,81.36
2017-12-16T07:02:08.774Z,81.07
2017-12-16T07:03:08.835Z,81.26
2017-12-16T07:04:08.787Z,81.17
2017-12-16T07:05:08.751Z,81.26
2017-12-16T07:06:08.745Z,80.69
2017-12-16T07:07:08.739Z,80.79
2017-12-16T07:08:08.733Z,80.69
2017-12-16T07:09:08.723Z,80.69
2017-12-16T07:10:08.717Z,81.17
2017-12-16T07:11:08.715Z,81.26
2017-12-16T07:12:08.702Z,81.83
2017-12-16T07:13:08.696Z,81.64
2017-12-16T07:14:08.691Z,81.64
2017-12-16T07:15:08.682Z,81.74
2017-12-16T07:16:08.674Z,81.26
2017-12-16T07:17:08.667Z,80.69
2017-12-16T07:18:08.663Z,80.79
2017-12-16T07:19:08.652Z,80.13
2017-12-16T07:20:08.645Z,79.66
2017-12-16T07:21:08.639Z,79.66
2017-12-16T07:22:08.632Z,79.47
2017-12-16T07:23:08.624Z,78.80
2017-12-16T07:24:08.616Z,79.37
2017-12-16T07:25:08.611Z,79.47
2017-12-16T07:26:08.604Z,79.75
2017-12-16T07:27:08.596Z,79.28
2017-12-16T07:28:08.590Z,80.51
2017-12-16T07:29:08.580Z,80.22
2017-12-16T07:30:08.576Z,79.85
2017-12-16T07:31:08.567Z,78.71
2017-12-16T07:32:08.562Z,78.99
2017-12-16T07:33:08.553Z,78.99
2017-12-16T07:34:08.551Z,79.09
2017-12-16T07:35:08.540Z,79.37
2017-12-16T07:36:08.533Z,79.28
2017-12-16T07:37:08.525Z,78.80
2017-12-16T07:38:08.518Z,79.56
2017-12-16T07:39:08.512Z,79.66
2017-12-16T07:40:08.505Z,78.99
2017-12-16T07:41:08.497Z,79.28
2017-12-16T07:42:08.493Z,79.18
2017-12-16T07:43:08.484Z,79.66
2017-12-16T07:44:08.478Z,79.37
2017-12-16T07:45:08.471Z,80.22
2017-12-16T07:46:08.465Z,80.88
2017-12-16T07:47:08.458Z,80.88
2017-12-16T07:48:08.451Z,80.13
2017-12-16T07:49:08.444Z,80.60
2017-12-16T07:50:08.437Z,80.41
2017-12-16T07:51:08.431Z,80.41
2017-12-16T07:52:08.424Z,80.88
2017-12-16T07:53:08.416Z,80.88
2017-12-16T07:54:08.410Z,80.79
2017-12-16T07:55:08.403Z,80.69
2017-12-16T07:56:08.397Z,81.36
2017-12-16T07:57:08.388Z,81.26
2017-12-16T07:58:08.383Z,81.55
2017-12-16T07:59:08.375Z,81.36
2017-12-16T08:00:08.369Z,80.32
2017-12-16T08:01:08.361Z,80.32
2017-12-16T08:02:08.354Z,79.28
2017-12-16T08:03:08.348Z,80.17
2017-12-16T08:04:08.342Z,79.98
2017-12-16T08:05:08.333Z,79.50
2017-12-16T08:06:08.326Z,78.90
2017-12-16T08:07:08.320Z,79.22
2017-12-16T08:08:08.314Z,78.33
2017-12-16T08:09:08.307Z,78.61
2017-12-16T08:10:08.300Z,78.75
2017-12-16T08:11:08.294Z,77.61
2017-12-16T08:12:08.289Z,77.80
2017-12-16T08:13:08.280Z,77.99
2017-12-16T08:14:08.275Z,78.37
2017-12-16T08:15:08.267Z,78.75
2017-12-16T08:16:08.262Z,77.61
2017-12-16T08:17:08.253Z,78.56
2017-12-16T08:18:08.247Z,78.56
2017-12-16T08:19:08.240Z,78.27
2017-12-16T08:20:08.234Z,77.80
2017-12-16T08:21:08.228Z,77.99
2017-12-16T08:22:08.221Z,77.89
2017-12-16T08:23:08.214Z,77.89
2017-12-16T08:24:08.207Z,77.51
2017-12-16T08:25:08.200Z,77.80
2017-12-16T08:26:08.194Z,77.42
2017-12-16T08:27:08.188Z,77.61
2017-12-16T08:28:08.182Z,77.33
2017-12-16T08:29:08.175Z,77.42
2017-12-16T08:30:08.169Z,77.99
2017-12-16T08:31:08.161Z,77.14
2017-12-16T08:32:08.156Z,77.42
2017-12-16T08:33:08.148Z,77.51
2017-12-16T08:34:08.143Z,77.80
2017-12-16T08:35:08.136Z,77.61
2017-12-16T08:36:08.130Z,77.42
2017-12-16T08:37:08.122Z,76.86
2017-12-16T08:38:08.117Z,76.48
2017-12-16T08:39:08.111Z,76.57
2017-12-16T08:40:08.105Z,76.48
2017-12-16T08:41:08.096Z,76.19
2017-12-16T08:42:08.091Z,75.72
2017-12-16T08:43:08.085Z,75.47
2017-12-16T08:44:08.079Z,75.09
2017-12-16T08:45:08.072Z,74.33
2017-12-16T08:46:08.067Z,74.90
2017-12-16T08:47:08.060Z,75.47
2017-12-16T08:48:08.055Z,74.71
2017-12-16T08:49:08.048Z,74.81
2017-12-16T08:50:08.042Z,74.33
2017-12-16T08:51:08.037Z,73.96
2017-12-16T08:52:08.032Z,74.43
2017-12-16T08:53:08.025Z,74.90
2017-12-16T08:54:08.018Z,74.33
2017-12-16T08:55:08.014Z,73.96
2017-12-16T08:56:08.009Z,73.11
2017-12-16T08:57:08.001Z,73.01
2017-12-16T08:58:07.996Z,73.01
2017-12-16T08:59:07.991Z,73.30
2017-12-16T09:00:07.985Z,72.34
2017-12-16T09:01:07.979Z,72.38
2017-12-16T09:02:07.975Z,72.86
2017-12-16T09:03:07.970Z,72.48
2017-12-16T09:04:07.964Z,71.53
2017-12-16T09:05:07.957Z,71.44
2017-12-16T09:06:07.953Z,71.72
2017-12-16T09:07:07.948Z,71.53
2017-12-16T09:08:07.943Z,72.48
2017-12-16T09:09:07.937Z,73.05
2017-12-16T09:10:07.932Z,72.96
2017-12-16T09:11:07.927Z,72.38
2017-12-16T09:12:07.922Z,70.90
2017-12-16T09:13:07.915Z,69.99
2017-12-16T09:14:07.912Z,67.90
2017-12-16T09:15:07.908Z,66.86
2017-12-16T09:16:07.903Z,66.67
2017-12-16T09:17:07.896Z,66.96
2017-12-16T09:18:07.895Z,67.77
2017-12-16T09:19:07.890Z,68.15
2017-12-16T09:20:07.887Z,68.15
2017-12-16T09:21:07.880Z,68.63
2017-12-16T09:22:07.881Z,69.20
2017-12-16T09:23:07.872Z,70.11
2017-12-16T09:24:07.868Z,70.53
2017-12-16T09:25:07.864Z,70.43
2017-12-16T09:26:07.859Z,70.72
2017-12-16T09:27:07.860Z,69.67
2017-12-16T09:28:07.853Z,69.77
2017-12-16T09:29:07.849Z,70.34
2017-12-16T09:30:07.844Z,70.53
2017-12-16T09:31:07.838Z,71.09
2017-12-16T09:32:07.835Z,71.53
2017-12-16T09:33:07.830Z,70.20
2017-12-16T09:34:07.826Z,70.97
2017-12-16T09:35:07.824Z,71.15
2017-12-16T09:36:07.819Z,71.44
2017-12-16T09:37:07.814Z,72.10
2017-12-16T09:38:07.808Z,72.92
2017-12-16T09:39:07.804Z,73.43
2017-12-16T09:40:07.799Z,73.68
2017-12-16T09:41:07.845Z,74.05
2017-12-16T09:42:07.789Z,74.81
2017-12-16T09:43:07.786Z,75.85
2017-12-16T09:44:07.780Z,77.65
2017-12-16T09:45:07.774Z,77.94
2017-12-16T09:46:07.770Z,78.88
2017-12-16T09:47:07.764Z,79.45
2017-12-16T09:48:07.762Z,79.74
2017-12-16T09:49:07.753Z,80.02
2017-12-16T09:50:07.749Z,81.40
2017-12-16T09:51:07.743Z,81.87
2017-12-16T09:52:07.737Z,82.72
2017-12-16T09:53:07.731Z,83.29
2017-12-16T09:54:07.727Z,82.91
2017-12-16T09:55:07.724Z,83.48
2017-12-16T09:56:07.715Z,83.76
2017-12-16T09:57:07.710Z,83.90
2017-12-16T09:58:07.703Z,83.90
2017-12-16T09:59:07.698Z,84.00
2017-12-16T10:00:07.693Z,83.81
2017-12-16T10:01:07.687Z,83.24
2017-12-16T10:02:07.681Z,83.81
2017-12-16T10:03:07.676Z,83.62
2017-12-16T10:04:07.671Z,83.24
2017-12-16T10:05:07.664Z,83.81
2017-12-16T10:06:07.659Z,84.05
2017-12-16T10:07:07.652Z,84.42
2017-12-16T10:08:07.647Z,84.38
2017-12-16T10:09:07.641Z,84.66
2017-12-16T10:10:07.637Z,84.28
2017-12-16T10:11:07.631Z,84.38
2017-12-16T10:12:07.626Z,84.09
2017-12-16T10:13:07.619Z,84.19
2017-12-16T10:14:07.614Z,84.56
2017-12-16T10:15:07.609Z,84.19
2017-12-16T10:16:07.610Z,83.81
2017-12-16T10:17:07.598Z,83.71
2017-12-16T10:18:07.600Z,83.05
2017-12-16T10:19:07.587Z,82.48
2017-12-16T10:20:07.584Z,82.01
2017-12-16T10:21:07.579Z,81.82
2017-12-16T10:22:07.571Z,80.77
2017-12-16T10:23:07.566Z,79.58
2017-12-16T10:24:07.565Z,79.77
2017-12-16T10:25:07.554Z,79.58
2017-12-16T10:26:07.550Z,80.34
2017-12-16T10:27:07.545Z,80.77
2017-12-16T10:28:07.539Z,80.77
2017-12-16T10:29:07.533Z,80.68
2017-12-16T10:30:07.528Z,80.30
2017-12-16T10:31:07.523Z,81.25
2017-12-16T10:32:07.518Z,82.01
2017-12-16T10:33:07.513Z,80.68
2017-12-16T10:34:07.508Z,80.11
2017-12-16T10:35:07.503Z,79.64
2017-12-16T10:36:07.497Z,80.30
2017-12-16T10:37:07.491Z,80.21
2017-12-16T10:38:07.487Z,80.40
2017-12-16T10:39:07.480Z,79.83
2017-12-16T10:40:07.477Z,80.68
2017-12-16T10:41:07.471Z,80.96
2017-12-16T10:42:07.465Z,80.68
2017-12-16T10:43:07.460Z,80.87
2017-12-16T10:44:07.454Z,80.25
2017-12-16T10:45:07.449Z,80.44
2017-12-16T10:46:07.444Z,79.11
2017-12-16T10:47:07.439Z,79.21
2017-12-16T10:48:07.444Z,79.49
2017-12-16T10:49:07.428Z,78.64
2017-12-16T10:50:07.423Z,78.73
2017-12-16T10:51:07.418Z,78.92
2017-12-16T10:52:07.413Z,79.11
2017-12-16T10:53:07.409Z,77.97
2017-12-16T10:54:07.403Z,77.50
2017-12-16T10:55:07.399Z,76.59
2017-12-16T10:56:07.394Z,76.87
2017-12-16T10:57:07.389Z,77.45
2017-12-16T10:58:07.384Z,76.87
2017-12-16T10:59:07.379Z,76.68
2017-12-16T11:00:07.375Z,76.68
2017-12-16T11:01:07.371Z,76.59
2017-12-16T11:02:07.366Z,76.03
2017-12-16T11:03:07.363Z,75.74
2017-12-16T11:04:07.358Z,75.26
2017-12-16T11:05:07.352Z,76.87
2017-12-16T11:06:07.355Z,76.87
2017-12-16T11:07:07.343Z,77.35
2017-12-16T11:08:07.338Z,77.16
2017-12-16T11:09:07.333Z,77.25
2017-12-16T11:10:07.331Z,76.21
2017-12-16T11:11:07.326Z,75.36
2017-12-16T11:12:07.321Z,76.87
2017-12-16T11:13:07.315Z,76.12
2017-12-16T11:14:07.314Z,75.11
2017-12-16T11:15:07.308Z,75.21
2017-12-16T11:16:07.306Z,73.79
2017-12-16T11:17:07.300Z,73.31
2017-12-16T11:18:07.304Z,73.60
2017-12-16T11:19:07.292Z,73.94
2017-12-16T11:20:07.290Z,73.75
2017-12-16T11:21:07.284Z,74.32
2017-12-16T11:22:07.285Z,74.13
2017-12-16T11:23:07.277Z,75.45
2017-12-16T11:24:07.273Z,75.74
2017-12-16T11:25:07.270Z,75.26
2017-12-16T11:26:07.266Z,74.41
2017-12-16T11:27:07.263Z,74.69
2017-12-16T11:28:07.258Z,73.65
2017-12-16T11:29:07.255Z,73.75
2017-12-16T11:30:07.252Z,73.27
2017-12-16T11:31:07.250Z,74.13
2017-12-16T11:32:07.243Z,73.84
2017-12-16T11:33:07.239Z,73.94
2017-12-16T11:34:07.234Z,74.41
2017-12-16T11:35:07.232Z,74.88
2017-12-16T11:36:07.227Z,74.51
2017-12-16T11:37:07.225Z,74.13
2017-12-16T11:38:07.219Z,74.03
2017-12-16T11:39:07.214Z,73.27
2017-12-16T11:40:07.210Z,73.08
2017-12-16T11:41:07.204Z,73.08
2017-12-16T11:42:07.199Z,72.23
2017-12-16T11:43:07.196Z,72.52
2017-12-16T11:44:07.191Z,72.99
2017-12-16T11:45:07.187Z,72.96
2017-12-16T11:46:07.183Z,72.48
2017-12-16T11:47:07.177Z,73.24
2017-12-16T11:48:07.172Z,73.24
2017-12-16T11:49:07.168Z,73.61
2017-12-16T11:50:07.162Z,74.28
2017-12-16T11:51:07.156Z,75.23
2017-12-16T11:52:07.152Z,74.95
2017-12-16T11:53:07.147Z,74.95
2017-12-16T11:54:07.145Z,74.95
2017-12-16T11:55:07.136Z,75.04
2017-12-16T11:56:07.132Z,76.17
2017-12-16T11:57:07.126Z,75.70
2017-12-16T11:58:07.120Z,75.04
2017-12-16T11:59:07.114Z,75.89
2017-12-16T12:00:07.110Z,76.17
2017-12-16T12:01:07.103Z,76.74
2017-12-16T12:02:07.099Z,76.08
2017-12-16T12:03:07.100Z,75.60
2017-12-16T12:04:07.089Z,75.70
2017-12-16T12:05:07.082Z,74.85
2017-12-16T12:06:07.076Z,74.75
2017-12-16T12:07:07.122Z,74.95
2017-12-16T12:08:07.066Z,75.32
2017-12-16T12:09:07.059Z,74.56
2017-12-16T12:10:07.055Z,74.75
2017-12-16T12:11:07.051Z,74.28
2017-12-16T12:12:07.044Z,74.37
2017-12-16T12:13:07.038Z,74.13
2017-12-16T12:14:07.032Z,73.75
2017-12-16T12:15:07.029Z,73.18
2017-12-16T12:16:07.022Z,73.37
2017-12-16T12:17:07.018Z,73.56
2017-12-16T12:18:07.011Z,72.89
2017-12-16T12:19:07.008Z,73.18
2017-12-16T12:20:07.001Z,73.56
2017-12-16T12:21:06.996Z,72.80
2017-12-16T12:22:06.990Z,72.71
2017-12-16T12:23:06.985Z,71.95
2017-12-16T12:24:06.981Z,71.76
2017-12-16T12:25:06.975Z,72.14
2017-12-16T12:26:06.970Z,73.18
2017-12-16T12:27:06.966Z,72.89
2017-12-16T12:28:06.959Z,73.18
2017-12-16T12:29:06.955Z,73.46
2017-12-16T12:30:06.951Z,73.37
2017-12-16T12:31:06.944Z,73.18
2017-12-16T12:32:06.939Z,73.46
2017-12-16T12:33:06.934Z,73.56
2017-12-16T12:34:06.965Z,73.90
2017-12-16T12:35:06.923Z,73.90
2017-12-16T12:36:06.919Z,73.80
2017-12-16T12:37:06.913Z,74.56
2017-12-16T12:38:06.906Z,73.71
2017-12-16T12:39:06.902Z,73.56
2017-12-16T12:40:06.898Z,73.65
2017-12-16T12:41:06.890Z,73.71
2017-12-16T12:42:06.887Z,73.94
2017-12-16T12:43:06.882Z,74.79
2017-12-16T12:44:06.877Z,75.26
2017-12-16T12:45:06.870Z,74.13
2017-12-16T12:46:06.866Z,73.56
2017-12-16T12:47:06.859Z,73.65
2017-12-16T12:48:06.859Z,74.13
2017-12-16T12:49:06.849Z,73.37
2017-12-16T12:50:06.843Z,72.71
2017-12-16T12:51:06.839Z,71.47
2017-12-16T12:52:06.833Z,71.57